Jenneville, Vermont
Current Conditions -  °F | °C
As of 12:54 PM on Saturday 20 Dec 2014 (Local Time) from KVSF Reporting Station
Clear Clear  
Wind Chill: 29°   Ceiling: Unl
Heat Index: 29°   Visibility: 10mi
Dew Point: 15°   Wind: 0mph
Humidity: 56%   Direction: NA
Pressure: 30.26"   Gusts: NA
Location:  43.4897°N, 72.4482°W
Report Text: KVSF 201754Z AUTO 00000KT 10SM CLR M02/M09 A3026 RMK AO2 SLP255 I6000 T10171094 11011 21094 56020 TSNO
Loading
Personal Weather Stations






























Interactive Weather Map New forecast layout! Learn more

10-Day Weather Forecast

Advertisements
Track Severe Weather on mobile